Time;durP1;ratioP1;P1;durP2;ratioP2;P2;SDS_P1;SDS_P2;PMS_P1;PMS_P2;Temp;Humidity;BMP_temperature;BMP_pressure;BME280_temperature;BME280_humidity;BME280_pressure;Samples;Min_cycle;Max_cycle;Signal;HPM_P1;HPM_P2
2023/12/26 00:01:14;;;;;;;88.10;47.97;;;;;;;;;;4999091;28;20365;-72
2023/12/26 00:03:39;;;;;;;109.10;59.33;;;;;;;;;;4987800;28;20075;-72
2023/12/26 00:06:06;;;;;;;114.82;59.15;;;;;;;;;;4987122;28;20037;-71
2023/12/26 00:08:32;;;;;;;100.70;53.13;;;;;;;;;;4992596;28;20121;-73
2023/12/26 00:10:58;;;;;;;76.43;42.22;;;;;;;;;;4992016;28;20153;-71
2023/12/26 00:13:23;;;;;;;80.50;43.03;;;;;;;;;;4985153;28;20453;-72
2023/12/26 00:15:51;;;;;;;73.68;41.72;;;;;;;;;;4971845;28;20088;-73
2023/12/26 00:18:17;;;;;;;78.95;40.38;;;;;;;;;;4971986;28;20101;-72
2023/12/26 00:20:43;;;;;;;65.13;37.65;;;;;;;;;;4973302;28;20082;-73
2023/12/26 00:23:10;;;;;;;78.78;43.25;;;;;;;;;;4974102;28;20045;-73
2023/12/26 00:25:36;;;;;;;73.72;41.85;;;;;;;;;;5005212;28;20504;-72
2023/12/26 00:28:04;;;;;;;59.40;32.78;;;;;;;;;;4973880;28;20066;-73
2023/12/26 00:30:32;;;;;;;58.53;33.92;;;;;;;;;;4974468;28;20058;-72
2023/12/26 00:32:57;;;;;;;64.90;32.97;;;;;;;;;;4973928;28;20027;-73
2023/12/26 00:35:24;;;;;;;62.13;35.92;;;;;;;;;;4973865;28;20049;-73
2023/12/26 00:37:50;;;;;;;70.05;35.05;;;;;;;;;;4973822;28;20035;-73
2023/12/26 00:40:15;;;;;;;66.25;34.17;;;;;;;;;;4973881;28;20033;-73
2023/12/26 00:42:43;;;;;;;55.65;30.23;;;;;;;;;;4972351;28;20035;-73
2023/12/26 00:45:09;;;;;;;52.22;29.23;;;;;;;;;;4973641;28;20038;-73
2023/12/26 00:47:34;;;;;;;51.08;27.35;;;;;;;;;;4973848;28;20452;-73
2023/12/26 00:50:02;;;;;;;65.00;35.85;;;;;;;;;;4972472;28;20539;-73
2023/12/26 00:52:30;;;;;;;51.65;30.65;;;;;;;;;;4974089;28;20464;-73
2023/12/26 00:54:56;;;;;;;54.28;28.05;;;;;;;;;;4973494;28;20030;-73
2023/12/26 00:57:22;;;;;;;63.10;29.55;;;;;;;;;;5004847;28;20094;-73
2023/12/26 00:59:48;;;;;;;54.25;28.30;;;;;;;;;;4971905;28;20586;-73
2023/12/26 01:02:14;;;;;;;55.70;31.23;;;;;;;;;;4972665;28;20026;-73
2023/12/26 01:04:40;;;;;;;57.60;29.92;;;;;;;;;;4972534;28;20035;-73
2023/12/26 01:07:06;;;;;;;53.08;28.80;;;;;;;;;;4972720;28;20042;-73
2023/12/26 01:09:33;;;;;;;49.40;25.80;;;;;;;;;;4973635;28;20027;-73
2023/12/26 01:12:00;;;;;;;41.38;22.20;;;;;;;;;;4972017;28;20039;-73
2023/12/26 01:14:27;;;;;;;38.22;22.38;;;;;;;;;;4973398;28;20043;-73
2023/12/26 01:16:53;;;;;;;40.40;22.67;;;;;;;;;;4972178;28;20037;-72
2023/12/26 01:19:19;;;;;;;34.63;19.33;;;;;;;;;;4973276;28;20042;-72
2023/12/26 01:21:44;;;;;;;34.92;18.75;;;;;;;;;;4955895;28;20027;-72
2023/12/26 01:24:11;;;;;;;34.75;19.17;;;;;;;;;;4971806;28;20030;-72
2023/12/26 01:26:36;;;;;;;36.30;19.52;;;;;;;;;;4971816;28;20031;-72
2023/12/26 01:29:04;;;;;;;37.38;20.40;;;;;;;;;;5004844;28;20031;-72
2023/12/26 01:31:34;;;;;;;32.50;19.75;;;;;;;;;;4971921;28;20027;-72
2023/12/26 01:33:59;;;;;;;36.03;20.15;;;;;;;;;;5004521;28;20045;-73
2023/12/26 01:36:26;;;;;;;40.63;22.00;;;;;;;;;;5004583;28;20069;-72
2023/12/26 01:38:51;;;;;;;41.78;21.02;;;;;;;;;;5007679;28;20403;-72
2023/12/26 01:41:17;;;;;;;41.55;20.23;;;;;;;;;;4988526;28;20046;-73
2023/12/26 01:43:43;;;;;;;35.40;19.10;;;;;;;;;;5003877;28;20444;-72
2023/12/26 01:46:12;;;;;;;35.95;20.90;;;;;;;;;;4972960;28;20029;-72
2023/12/26 01:48:39;;;;;;;40.47;20.98;;;;;;;;;;4972795;28;20027;-72
2023/12/26 01:51:09;;;;;;;32.20;20.58;;;;;;;;;;4972851;28;20043;-73
2023/12/26 01:53:38;;;;;;;40.60;20.60;;;;;;;;;;4971100;28;20034;-72
2023/12/26 01:56:09;;;;;;;46.03;21.40;;;;;;;;;;4971246;28;20237;-72
2023/12/26 01:58:36;;;;;;;53.63;28.08;;;;;;;;;;5003880;28;20046;-72
2023/12/26 02:01:05;;;;;;;51.20;28.80;;;;;;;;;;4970447;28;20054;-71
2023/12/26 02:03:32;;;;;;;51.92;32.65;;;;;;;;;;4971640;28;20089;-71
2023/12/26 02:06:00;;;;;;;55.72;34.47;;;;;;;;;;4972896;28;20038;-71
2023/12/26 02:08:27;;;;;;;54.60;33.13;;;;;;;;;;4971642;28;20489;-71
2023/12/26 02:10:54;;;;;;;60.45;32.08;;;;;;;;;;4975183;28;20035;-72
2023/12/26 02:13:20;;;;;;;63.90;35.95;;;;;;;;;;4975356;28;20077;-73
2023/12/26 02:15:50;;;;;;;68.10;38.47;;;;;;;;;;4975670;28;20190;-71
2023/12/26 02:18:16;;;;;;;64.68;36.88;;;;;;;;;;4991716;28;20378;-72
2023/12/26 02:20:42;;;;;;;63.92;36.80;;;;;;;;;;4975023;28;20027;-71
2023/12/26 02:23:08;;;;;;;62.55;35.67;;;;;;;;;;4975119;28;20054;-72
2023/12/26 02:25:33;;;;;;;59.03;34.15;;;;;;;;;;4976129;28;20114;-72
2023/12/26 02:28:02;;;;;;;61.67;33.25;;;;;;;;;;4976470;28;20477;-72
2023/12/26 02:30:29;;;;;;;52.45;31.33;;;;;;;;;;4975278;28;20041;-72
2023/12/26 02:32:58;;;;;;;60.83;35.15;;;;;;;;;;4975087;28;20027;-72
2023/12/26 02:35:24;;;;;;;63.80;34.55;;;;;;;;;;4974966;28;20038;-72
2023/12/26 02:37:50;;;;;;;61.65;34.03;;;;;;;;;;4959050;28;20034;-72
2023/12/26 02:40:16;;;;;;;57.63;33.05;;;;;;;;;;4975089;28;20028;-72
2023/12/26 02:42:41;;;;;;;64.18;35.35;;;;;;;;;;4974988;28;20493;-73
2023/12/26 02:45:08;;;;;;;63.70;34.58;;;;;;;;;;4981365;28;20250;-72
2023/12/26 02:47:34;;;;;;;61.72;35.65;;;;;;;;;;4995586;28;20057;-73
2023/12/26 02:49:59;;;;;;;63.20;35.78;;;;;;;;;;4990447;28;20521;-73
2023/12/26 02:52:25;;;;;;;58.95;34.15;;;;;;;;;;4994560;28;20069;-72
2023/12/26 02:54:51;;;;;;;67.15;36.78;;;;;;;;;;4991093;28;20046;-72
2023/12/26 02:57:17;;;;;;;61.95;36.42;;;;;;;;;;4993776;28;20088;-72
2023/12/26 02:59:42;;;;;;;62.47;35.38;;;;;;;;;;4993639;28;20026;-72
2023/12/26 03:02:08;;;;;;;62.15;33.13;;;;;;;;;;4993312;28;20399;-72
2023/12/26 03:04:35;;;;;;;56.20;34.15;;;;;;;;;;4993109;28;20034;-72
2023/12/26 03:07:01;;;;;;;61.15;34.30;;;;;;;;;;4993942;28;20034;-72
2023/12/26 03:09:26;;;;;;;62.67;35.25;;;;;;;;;;4993978;28;20479;-72
2023/12/26 03:11:52;;;;;;;56.83;32.28;;;;;;;;;;4994195;28;20316;-72
2023/12/26 03:14:18;;;;;;;54.22;32.45;;;;;;;;;;4993919;28;20044;-72
2023/12/26 03:16:43;;;;;;;56.65;33.60;;;;;;;;;;4995865;28;20029;-72
2023/12/26 03:19:09;;;;;;;51.70;30.10;;;;;;;;;;4994088;28;20034;-72
2023/12/26 03:21:35;;;;;;;56.40;31.60;;;;;;;;;;4992841;28;20050;-72
2023/12/26 03:24:01;;;;;;;59.47;33.22;;;;;;;;;;4993622;28;20030;-72
2023/12/26 03:26:26;;;;;;;54.00;30.90;;;;;;;;;;4993855;28;20444;-72
2023/12/26 03:28:54;;;;;;;51.40;30.08;;;;;;;;;;4994724;28;20042;-71
2023/12/26 03:31:20;;;;;;;55.47;31.70;;;;;;;;;;4993931;28;20552;-71
2023/12/26 03:33:45;;;;;;;56.50;30.60;;;;;;;;;;4993325;28;20102;-72
2023/12/26 03:36:11;;;;;;;66.50;31.55;;;;;;;;;;4995002;28;20023;-72
2023/12/26 03:38:37;;;;;;;55.80;31.73;;;;;;;;;;4994697;28;20550;-72
2023/12/26 03:41:03;;;;;;;58.72;30.38;;;;;;;;;;4993367;28;20031;-72
2023/12/26 03:43:29;;;;;;;56.90;29.90;;;;;;;;;;5000384;28;20037;-72
2023/12/26 03:45:54;;;;;;;58.28;29.67;;;;;;;;;;4993181;28;20157;-72
2023/12/26 03:48:20;;;;;;;46.30;27.58;;;;;;;;;;4976856;28;20192;-73
2023/12/26 03:50:47;;;;;;;63.05;29.90;;;;;;;;;;4993168;28;20026;-73
2023/12/26 03:53:13;;;;;;;51.85;29.70;;;;;;;;;;4993080;28;20034;-72
2023/12/26 03:55:40;;;;;;;65.18;30.85;;;;;;;;;;4976732;28;20480;-72
2023/12/26 03:58:06;;;;;;;51.83;29.17;;;;;;;;;;4994336;28;20400;-72
2023/12/26 04:00:32;;;;;;;55.65;28.40;;;;;;;;;;4993029;28;20026;-72
2023/12/26 04:02:57;;;;;;;54.63;28.23;;;;;;;;;;4992620;28;20041;-72
2023/12/26 04:05:24;;;;;;;51.17;27.90;;;;;;;;;;4992765;28;20030;-72
2023/12/26 04:07:50;;;;;;;47.80;28.90;;;;;;;;;;4994434;28;20064;-72
2023/12/26 04:10:15;;;;;;;56.78;28.88;;;;;;;;;;4992823;28;20495;-71
2023/12/26 04:12:41;;;;;;;51.10;27.55;;;;;;;;;;4992750;28;20096;-71
2023/12/26 04:15:08;;;;;;;54.10;28.20;;;;;;;;;;4976405;28;20032;-72
2023/12/26 04:17:35;;;;;;;50.70;27.15;;;;;;;;;;4992270;28;20408;-72
2023/12/26 04:20:01;;;;;;;58.20;29.25;;;;;;;;;;4992133;28;20036;-72
2023/12/26 04:22:27;;;;;;;59.85;31.88;;;;;;;;;;4992753;28;20400;-72
2023/12/26 04:24:52;;;;;;;50.88;29.73;;;;;;;;;;4987794;28;20050;-72
2023/12/26 04:27:18;;;;;;;52.67;28.98;;;;;;;;;;4973059;28;20034;-73
2023/12/26 04:29:44;;;;;;;50.45;28.52;;;;;;;;;;4985056;28;20037;-71
2023/12/26 04:32:10;;;;;;;53.03;28.55;;;;;;;;;;4994645;28;20073;-72
2023/12/26 04:34:38;;;;;;;57.97;31.65;;;;;;;;;;4973922;28;20393;-72
2023/12/26 04:37:05;;;;;;;57.10;31.08;;;;;;;;;;4991990;28;20041;-71
2023/12/26 04:39:31;;;;;;;54.67;30.45;;;;;;;;;;4988330;28;20027;-72
2023/12/26 04:41:58;;;;;;;49.85;29.80;;;;;;;;;;4972747;28;20106;-72
2023/12/26 04:44:24;;;;;;;47.42;26.63;;;;;;;;;;4972503;28;20043;-73
2023/12/26 04:46:53;;;;;;;53.50;27.90;;;;;;;;;;4973439;28;20544;-72
2023/12/26 04:49:19;;;;;;;50.40;27.77;;;;;;;;;;4988451;28;20033;-73
2023/12/26 04:51:44;;;;;;;62.35;30.55;;;;;;;;;;4989743;28;20034;-73
2023/12/26 04:54:10;;;;;;;44.90;26.35;;;;;;;;;;4991515;28;20100;-72
2023/12/26 04:56:38;;;;;;;44.15;25.17;;;;;;;;;;4991503;28;20121;-73
2023/12/26 04:59:04;;;;;;;40.97;24.38;;;;;;;;;;4989269;28;20041;-72
2023/12/26 05:01:30;;;;;;;44.92;23.60;;;;;;;;;;5007942;28;20113;-73
2023/12/26 05:03:55;;;;;;;47.05;24.70;;;;;;;;;;4988742;28;20096;-72
2023/12/26 05:06:21;;;;;;;41.10;24.67;;;;;;;;;;4991589;28;20030;-72
2023/12/26 05:08:48;;;;;;;40.67;23.10;;;;;;;;;;4991821;28;20018;-72
2023/12/26 05:11:24;;;;;;;46.83;25.00;;;;;;;;;;4983872;28;20457;-72
2023/12/26 05:13:50;;;;;;;41.40;24.35;;;;;;;;;;4986251;28;20036;-72
2023/12/26 05:16:17;;;;;;;51.95;26.38;;;;;;;;;;4986554;28;20073;-72
2023/12/26 05:18:43;;;;;;;51.35;26.15;;;;;;;;;;4988383;28;20560;-71
2023/12/26 05:21:19;;;;;;;49.10;27.75;;;;;;;;;;4985750;28;20106;-71
2023/12/26 05:23:46;;;;;;;51.22;27.67;;;;;;;;;;4987650;28;20034;-72
2023/12/26 05:26:13;;;;;;;53.85;28.33;;;;;;;;;;4990832;28;20042;-73
2023/12/26 05:28:39;;;;;;;43.17;24.33;;;;;;;;;;4991822;28;20407;-72
2023/12/26 05:31:05;;;;;;;49.03;24.48;;;;;;;;;;4991227;28;20030;-72
2023/12/26 05:33:31;;;;;;;47.67;23.50;;;;;;;;;;4990829;28;20109;-72
2023/12/26 05:35:57;;;;;;;42.40;23.50;;;;;;;;;;4991042;28;20030;-72
2023/12/26 05:38:23;;;;;;;43.17;23.80;;;;;;;;;;4990990;28;20415;-72
2023/12/26 05:40:50;;;;;;;48.70;24.00;;;;;;;;;;4991029;28;20459;-71
2023/12/26 05:43:16;;;;;;;53.10;22.42;;;;;;;;;;4988247;28;20073;-71
2023/12/26 05:45:44;;;;;;;38.35;19.60;;;;;;;;;;4974505;28;20034;-72
2023/12/26 05:48:09;;;;;;;34.53;19.05;;;;;;;;;;4990962;28;20049;-71
2023/12/26 05:50:35;;;;;;;34.72;19.30;;;;;;;;;;4990842;28;20088;-72
2023/12/26 05:53:02;;;;;;;32.28;19.42;;;;;;;;;;4990892;28;20026;-72
2023/12/26 05:55:28;;;;;;;32.50;17.92;;;;;;;;;;4989702;28;20042;-71
2023/12/26 05:57:54;;;;;;;36.20;19.25;;;;;;;;;;4991202;28;20069;-72
2023/12/26 06:00:20;;;;;;;35.13;19.15;;;;;;;;;;4991329;28;20104;-72
2023/12/26 06:02:46;;;;;;;35.38;19.55;;;;;;;;;;4991021;28;20031;-72
2023/12/26 06:05:14;;;;;;;36.63;20.70;;;;;;;;;;4991981;28;20424;-71
2023/12/26 06:07:40;;;;;;;39.30;20.70;;;;;;;;;;4992076;28;20081;-72
2023/12/26 06:10:06;;;;;;;47.50;24.55;;;;;;;;;;4990687;28;20129;-72
2023/12/26 06:12:33;;;;;;;36.08;20.65;;;;;;;;;;4990664;28;20038;-72
2023/12/26 06:15:00;;;;;;;43.67;22.80;;;;;;;;;;4990764;28;20039;-72
2023/12/26 06:17:26;;;;;;;37.85;21.10;;;;;;;;;;4990640;28;20456;-72
2023/12/26 06:19:52;;;;;;;41.20;20.35;;;;;;;;;;4990695;28;20117;-72
2023/12/26 06:22:18;;;;;;;37.83;19.90;;;;;;;;;;4990722;28;20022;-72
2023/12/26 06:24:44;;;;;;;36.90;20.60;;;;;;;;;;4991833;28;20065;-72
2023/12/26 06:27:09;;;;;;;41.65;22.48;;;;;;;;;;4990514;28;20066;-72
2023/12/26 06:29:35;;;;;;;40.85;21.92;;;;;;;;;;4990585;28;20041;-71
2023/12/26 06:32:01;;;;;;;40.17;21.83;;;;;;;;;;4987324;28;20069;-72
2023/12/26 06:34:27;;;;;;;37.13;21.13;;;;;;;;;;4988642;28;20085;-72
2023/12/26 06:36:53;;;;;;;31.67;19.05;;;;;;;;;;4990610;28;20452;-74
2023/12/26 06:39:19;;;;;;;32.45;18.92;;;;;;;;;;4987532;28;20089;-72
2023/12/26 06:41:46;;;;;;;34.15;20.67;;;;;;;;;;4987532;28;20493;-71
2023/12/26 06:44:11;;;;;;;31.85;19.77;;;;;;;;;;5002761;28;20062;-72
2023/12/26 06:46:41;;;;;;;29.58;18.70;;;;;;;;;;4990439;28;20034;-72
2023/12/26 06:49:16;;;;;;;31.63;18.75;;;;;;;;;;4990475;28;20153;-72
2023/12/26 06:51:44;;;;;;;33.88;20.90;;;;;;;;;;4990077;28;20041;-72
2023/12/26 06:54:11;;;;;;;36.53;22.05;;;;;;;;;;4987381;28;20556;-72
2023/12/26 06:56:38;;;;;;;33.33;18.30;;;;;;;;;;4986854;28;20034;-72
2023/12/26 06:59:03;;;;;;;43.10;23.45;;;;;;;;;;4993666;28;20188;-71
2023/12/26 07:01:30;;;;;;;36.03;22.30;;;;;;;;;;4993572;28;20030;-72
2023/12/26 07:03:56;;;;;;;33.17;21.02;;;;;;;;;;4989363;28;20508;-72
2023/12/26 07:06:21;;;;;;;30.65;20.02;;;;;;;;;;4990392;28;20061;-74
2023/12/26 07:08:47;;;;;;;28.48;18.70;;;;;;;;;;4994688;28;20765;-74
2023/12/26 07:11:13;;;;;;;33.38;20.92;;;;;;;;;;4992973;28;20045;-73
2023/12/26 07:13:39;;;;;;;38.08;25.25;;;;;;;;;;4992080;28;20081;-73
2023/12/26 07:16:06;;;;;;;52.20;23.40;;;;;;;;;;4989515;28;20026;-72
2023/12/26 07:18:32;;;;;;;38.80;26.75;;;;;;;;;;4994381;28;20416;-73
2023/12/26 07:20:57;;;;;;;41.72;26.17;;;;;;;;;;4994524;28;20057;-73
2023/12/26 07:23:23;;;;;;;40.83;24.35;;;;;;;;;;4992879;28;20027;-73
2023/12/26 07:25:49;;;;;;;29.98;19.00;;;;;;;;;;4993753;28;20460;-72
2023/12/26 07:28:17;;;;;;;32.20;19.48;;;;;;;;;;4994233;28;20396;-73
2023/12/26 07:30:43;;;;;;;32.28;17.50;;;;;;;;;;4993029;28;20029;-73
2023/12/26 07:33:09;;;;;;;30.48;15.68;;;;;;;;;;4994409;28;20377;-73
2023/12/26 07:35:36;;;;;;;27.15;17.13;;;;;;;;;;4994451;28;20030;-72
2023/12/26 07:38:02;;;;;;;26.83;15.40;;;;;;;;;;4994661;28;20583;-72
2023/12/26 07:40:30;;;;;;;29.90;15.77;;;;;;;;;;4994469;28;20484;-72
2023/12/26 07:42:56;;;;;;;29.55;17.02;;;;;;;;;;4994316;28;20484;-73
2023/12/26 07:45:25;;;;;;;31.42;18.23;;;;;;;;;;4993769;28;20073;-74
2023/12/26 07:47:51;;;;;;;41.47;17.23;;;;;;;;;;4992288;28;20233;-74
2023/12/26 07:50:17;;;;;;;28.65;16.48;;;;;;;;;;4989618;28;20119;-72
2023/12/26 07:52:42;;;;;;;29.65;17.00;;;;;;;;;;4995073;28;20161;-72
2023/12/26 07:55:08;;;;;;;26.90;17.35;;;;;;;;;;4997978;28;20040;-74
2023/12/26 07:57:34;;;;;;;30.75;17.88;;;;;;;;;;5011659;28;20064;-72
2023/12/26 07:59:59;;;;;;;31.13;17.73;;;;;;;;;;5013026;28;20499;-73
2023/12/26 08:02:25;;;;;;;32.40;18.17;;;;;;;;;;4994401;28;20105;-72
2023/12/26 08:04:51;;;;;;;28.95;18.73;;;;;;;;;;4991296;28;20034;-71
2023/12/26 08:07:16;;;;;;;32.67;19.40;;;;;;;;;;4992643;28;20023;-72
2023/12/26 08:09:42;;;;;;;33.67;18.65;;;;;;;;;;4993665;28;20042;-74
2023/12/26 08:12:08;;;;;;;29.48;17.50;;;;;;;;;;5011258;28;20053;-74
2023/12/26 08:14:34;;;;;;;25.05;17.30;;;;;;;;;;5012021;28;20034;-73
2023/12/26 08:17:00;;;;;;;30.70;17.42;;;;;;;;;;4996926;28;20027;-72
2023/12/26 08:19:26;;;;;;;27.45;16.08;;;;;;;;;;4991629;28;20562;-73
2023/12/26 08:21:53;;;;;;;27.33;16.90;;;;;;;;;;5004990;28;20022;-73
2023/12/26 08:24:19;;;;;;;25.38;15.98;;;;;;;;;;5002436;28;20369;-73
2023/12/26 08:26:44;;;;;;;26.60;15.45;;;;;;;;;;5000140;28;20029;-73
2023/12/26 08:29:10;;;;;;;24.20;14.85;;;;;;;;;;4992472;28;20049;-73
2023/12/26 08:31:36;;;;;;;22.80;15.07;;;;;;;;;;5007333;28;20041;-73
2023/12/26 08:34:02;;;;;;;25.92;15.75;;;;;;;;;;4992332;28;20520;-74
2023/12/26 08:36:27;;;;;;;23.77;15.18;;;;;;;;;;5000776;28;20028;-75
2023/12/26 08:38:53;;;;;;;31.65;15.55;;;;;;;;;;4996280;28;20056;-73
2023/12/26 08:41:19;;;;;;;20.00;13.07;;;;;;;;;;5005238;28;20034;-72
2023/12/26 08:43:44;;;;;;;25.63;15.30;;;;;;;;;;5000486;28;20492;-73
2023/12/26 08:46:10;;;;;;;22.23;14.35;;;;;;;;;;5000807;28;20030;-74
2023/12/26 08:48:36;;;;;;;19.50;12.90;;;;;;;;;;4993116;28;20056;-74
2023/12/26 08:51:01;;;;;;;23.90;14.23;;;;;;;;;;4999442;28;20026;-75
2023/12/26 08:53:27;;;;;;;25.20;14.75;;;;;;;;;;4991249;28;20378;-72
2023/12/26 08:55:54;;;;;;;23.10;14.60;;;;;;;;;;4993026;28;20433;-73
2023/12/26 08:58:20;;;;;;;29.67;16.42;;;;;;;;;;4992759;28;20147;-72
2023/12/26 09:00:45;;;;;;;28.20;15.68;;;;;;;;;;4992609;28;20057;-73
2023/12/26 09:03:11;;;;;;;25.58;15.88;;;;;;;;;;4992828;28;20116;-73
2023/12/26 09:05:37;;;;;;;21.33;15.10;;;;;;;;;;4992285;28;20081;-72
2023/12/26 09:08:03;;;;;;;32.92;15.93;;;;;;;;;;4992583;28;20030;-73
2023/12/26 09:10:29;;;;;;;27.65;15.07;;;;;;;;;;4990976;28;20052;-73
2023/12/26 09:12:55;;;;;;;23.52;14.98;;;;;;;;;;4992361;28;20468;-73
2023/12/26 09:15:20;;;;;;;26.75;15.93;;;;;;;;;;4992421;28;20109;-73
2023/12/26 09:17:46;;;;;;;22.15;15.80;;;;;;;;;;4992222;28;20026;-73
2023/12/26 09:20:12;;;;;;;22.20;16.20;;;;;;;;;;4991512;28;20030;-72
2023/12/26 09:22:38;;;;;;;24.67;14.70;;;;;;;;;;4992373;28;20069;-73
2023/12/26 09:25:05;;;;;;;21.33;14.45;;;;;;;;;;4992401;28;20034;-73
2023/12/26 09:27:31;;;;;;;27.40;14.95;;;;;;;;;;4992405;28;20049;-73
2023/12/26 09:29:58;;;;;;;23.38;14.55;;;;;;;;;;4991940;28;20555;-72
2023/12/26 09:32:24;;;;;;;24.45;14.50;;;;;;;;;;4992269;28;20054;-72
2023/12/26 09:34:50;;;;;;;22.33;13.57;;;;;;;;;;4992160;28;20631;-73
2023/12/26 09:37:16;;;;;;;23.40;15.45;;;;;;;;;;4992064;28;20599;-72
2023/12/26 09:39:42;;;;;;;26.23;13.68;;;;;;;;;;4992195;28;20045;-73
2023/12/26 09:42:09;;;;;;;27.05;14.10;;;;;;;;;;4991932;28;20030;-72
2023/12/26 09:44:37;;;;;;;29.25;14.25;;;;;;;;;;4991276;28;20364;-73
2023/12/26 09:47:05;;;;;;;25.40;13.55;;;;;;;;;;4992075;28;20053;-72
2023/12/26 09:49:31;;;;;;;24.27;13.95;;;;;;;;;;4992071;28;20058;-75
2023/12/26 09:52:01;;;;;;;24.40;13.02;;;;;;;;;;4992239;28;20112;-73
2023/12/26 09:54:30;;;;;;;21.55;13.10;;;;;;;;;;4991507;28;20030;-73
2023/12/26 09:56:56;;;;;;;22.30;14.05;;;;;;;;;;4990034;28;20026;-72
2023/12/26 09:59:25;;;;;;;22.10;13.88;;;;;;;;;;4990303;28;20054;-72
2023/12/26 10:01:51;;;;;;;24.70;16.52;;;;;;;;;;4990294;28;20117;-73
2023/12/26 10:04:16;;;;;;;20.48;14.32;;;;;;;;;;4991755;28;20105;-73
2023/12/26 10:06:42;;;;;;;24.15;15.43;;;;;;;;;;4991517;28;20496;-73
2023/12/26 10:09:08;;;;;;;21.00;14.35;;;;;;;;;;4974039;28;20026;-74
2023/12/26 10:11:34;;;;;;;25.75;15.85;;;;;;;;;;4990751;28;20489;-73
2023/12/26 10:14:01;;;;;;;22.75;14.50;;;;;;;;;;4991740;28;20057;-73
2023/12/26 10:16:27;;;;;;;20.55;14.68;;;;;;;;;;4987138;28;20093;-73
2023/12/26 10:18:52;;;;;;;25.95;15.30;;;;;;;;;;4991520;28;20034;-73
2023/12/26 10:21:18;;;;;;;25.55;15.20;;;;;;;;;;4990425;28;20221;-72
2023/12/26 10:23:45;;;;;;;22.33;14.60;;;;;;;;;;4991509;28;20026;-72
2023/12/26 10:26:11;;;;;;;25.23;15.40;;;;;;;;;;4990053;28;20108;-73
2023/12/26 10:28:44;;;;;;;23.27;13.75;;;;;;;;;;4990291;28;20034;-73
2023/12/26 10:31:13;;;;;;;19.90;13.23;;;;;;;;;;4992816;28;20112;-74
2023/12/26 10:33:40;;;;;;;18.23;12.23;;;;;;;;;;4995182;28;20042;-72
2023/12/26 10:36:07;;;;;;;20.02;13.35;;;;;;;;;;4995468;28;20057;-73
2023/12/26 10:38:34;;;;;;;19.08;12.77;;;;;;;;;;4995243;28;20030;-74
2023/12/26 10:41:10;;;;;;;21.30;12.27;;;;;;;;;;4995053;28;20480;-73
2023/12/26 10:43:43;;;;;;;18.13;12.48;;;;;;;;;;4995292;28;20515;-73
2023/12/26 10:46:08;;;;;;;21.27;12.77;;;;;;;;;;4995279;28;20457;-75
2023/12/26 10:48:35;;;;;;;16.67;11.00;;;;;;;;;;4993985;28;20271;-74
2023/12/26 10:51:01;;;;;;;19.88;12.27;;;;;;;;;;4992069;28;20045;-73
2023/12/26 10:53:54;;;;;;;22.10;12.40;;;;;;;;;;4994540;28;20041;-72
2023/12/26 10:56:22;;;;;;;18.88;11.82;;;;;;;;;;4992518;28;20046;-72
2023/12/26 10:58:52;;;;;;;16.70;11.32;;;;;;;;;;4995095;28;20033;-72
2023/12/26 13:51:27;;;;;;;12.52;6.85;;;;;;;;;;4991519;28;20104;-72
2023/12/26 13:54:29;;;;;;;13.43;6.53;;;;;;;;;;4990832;28;20536;-72
2023/12/26 13:57:32;;;;;;;13.98;6.60;;;;;;;;;;4999310;28;20105;-71
2023/12/26 14:00:36;;;;;;;14.98;6.47;;;;;;;;;;5010849;28;20041;-73
2023/12/26 14:03:39;;;;;;;11.63;5.65;;;;;;;;;;5008962;28;20049;-73
2023/12/26 14:06:42;;;;;;;9.70;4.97;;;;;;;;;;5002765;28;20112;-72
2023/12/26 14:09:46;;;;;;;11.38;5.35;;;;;;;;;;4995410;28;20473;-73
2023/12/26 14:12:50;;;;;;;12.10;5.25;;;;;;;;;;4997342;28;20495;-73
2023/12/26 14:15:55;;;;;;;21.65;13.52;;;;;;;;;;5012842;28;20045;-73
2023/12/26 14:18:59;;;;;;;22.70;14.25;;;;;;;;;;5014997;28;20025;-73
2023/12/26 14:22:02;;;;;;;11.25;5.63;;;;;;;;;;5014587;28;20037;-73
2023/12/26 14:25:05;;;;;;;11.27;5.88;;;;;;;;;;5013460;28;20503;-72
2023/12/26 14:28:08;;;;;;;14.70;5.88;;;;;;;;;;4988256;28;20492;-73
2023/12/26 14:31:12;;;;;;;10.25;5.80;;;;;;;;;;5007847;28;20037;-71
2023/12/26 14:34:15;;;;;;;395.35;255.88;;;;;;;;;;5014319;28;20037;-71
2023/12/26 14:37:18;;;;;;;121.75;75.65;;;;;;;;;;5014579;28;20030;-70
2023/12/26 14:40:21;;;;;;;16.55;8.88;;;;;;;;;;5014617;28;20026;-72
2023/12/26 14:43:24;;;;;;;8.43;5.03;;;;;;;;;;4997886;28;20042;-72
2023/12/26 14:46:27;;;;;;;11.07;5.20;;;;;;;;;;5001309;28;20038;-72
2023/12/26 14:49:31;;;;;;;12.95;5.22;;;;;;;;;;4991366;28;20050;-71
2023/12/26 14:52:34;;;;;;;12.57;4.85;;;;;;;;;;4997321;28;20042;-73
2023/12/26 14:55:37;;;;;;;9.40;5.32;;;;;;;;;;4993639;28;20078;-73
2023/12/26 14:58:40;;;;;;;8.60;4.47;;;;;;;;;;4994834;28;20026;-73
2023/12/26 15:01:43;;;;;;;15.48;6.50;;;;;;;;;;5006269;28;20088;-72
2023/12/26 15:04:09;;;;;;;15.02;5.70;;;;;;;;;;4996019;28;20042;-72
2023/12/26 15:06:35;;;;;;;10.45;4.88;;;;;;;;;;5009215;28;20034;-72
2023/12/26 15:09:01;;;;;;;11.02;5.70;;;;;;;;;;5002318;28;20440;-72
2023/12/26 15:11:28;;;;;;;14.65;7.75;;;;;;;;;;5013538;28;20124;-71
2023/12/26 15:13:54;;;;;;;16.33;7.65;;;;;;;;;;4998493;28;20042;-70
2023/12/26 15:16:20;;;;;;;16.30;8.75;;;;;;;;;;4993902;28;20113;-71
2023/12/26 15:18:46;;;;;;;21.00;9.00;;;;;;;;;;4993073;28;20037;-71
2023/12/26 15:21:12;;;;;;;21.17;9.23;;;;;;;;;;4993560;28;20035;-72
2023/12/26 15:23:38;;;;;;;17.17;8.80;;;;;;;;;;4994269;28;20031;-72
2023/12/26 15:26:14;;;;;;;18.90;10.02;;;;;;;;;;5010493;28;20132;-72
2023/12/26 15:28:43;;;;;;;22.27;10.70;;;;;;;;;;5013633;28;20033;-74
2023/12/26 15:31:18;;;;;;;21.50;11.15;;;;;;;;;;4995571;28;20022;-71
2023/12/26 15:33:47;;;;;;;29.50;13.50;;;;;;;;;;4999360;28;20066;-73
2023/12/26 15:36:17;;;;;;;23.45;13.13;;;;;;;;;;5002003;28;20041;-71
2023/12/26 15:38:44;;;;;;;28.27;14.20;;;;;;;;;;5006910;28;20037;-71
2023/12/26 15:41:10;;;;;;;39.70;18.58;;;;;;;;;;5002771;28;20377;-72
2023/12/26 15:43:35;;;;;;;45.78;20.65;;;;;;;;;;4996380;28;20080;-73
2023/12/26 15:46:03;;;;;;;38.15;20.35;;;;;;;;;;5004857;28;20045;-73
2023/12/26 15:48:32;;;;;;;35.47;21.23;;;;;;;;;;5001946;28;20034;-72
2023/12/26 15:50:57;;;;;;;40.42;22.13;;;;;;;;;;5001267;28;20036;-72
2023/12/26 15:53:23;;;;;;;40.55;19.58;;;;;;;;;;4995548;28;20516;-72
2023/12/26 15:55:49;;;;;;;41.22;19.63;;;;;;;;;;4997824;28;20082;-72
2023/12/26 15:58:15;;;;;;;31.13;15.27;;;;;;;;;;4983193;28;20030;-72
2023/12/26 16:00:41;;;;;;;23.35;13.65;;;;;;;;;;4988294;28;20030;-71
2023/12/26 16:03:07;;;;;;;24.08;13.98;;;;;;;;;;5004588;28;20020;-72
2023/12/26 16:05:36;;;;;;;34.65;16.73;;;;;;;;;;5001485;28;20034;-71
2023/12/26 16:08:04;;;;;;;41.05;22.88;;;;;;;;;;4992126;28;20555;-72
2023/12/26 16:10:30;;;;;;;56.55;28.73;;;;;;;;;;5008313;28;20042;-72
2023/12/26 16:12:56;;;;;;;62.55;31.05;;;;;;;;;;5005371;28;20648;-73
2023/12/26 16:15:22;;;;;;;72.78;36.08;;;;;;;;;;4993941;28;20027;-72
2023/12/26 16:17:47;;;;;;;80.82;40.10;;;;;;;;;;5003796;28;20098;-72
2023/12/26 16:20:13;;;;;;;78.97;46.05;;;;;;;;;;4996461;28;20404;-71
2023/12/26 16:22:39;;;;;;;82.40;48.03;;;;;;;;;;5011314;28;20022;-71
2023/12/26 16:25:05;;;;;;;78.85;46.15;;;;;;;;;;5003741;28;20030;-71
2023/12/26 16:27:30;;;;;;;72.90;43.05;;;;;;;;;;5003132;28;20039;-71
2023/12/26 16:29:56;;;;;;;79.05;39.40;;;;;;;;;;4998134;28;20475;-72
2023/12/26 16:32:22;;;;;;;77.80;38.60;;;;;;;;;;5001377;28;20038;-71
2023/12/26 16:34:47;;;;;;;70.25;36.33;;;;;;;;;;4997628;28;20307;-73
2023/12/26 16:37:13;;;;;;;64.03;37.58;;;;;;;;;;4998838;28;20030;-72
2023/12/26 16:39:39;;;;;;;75.55;39.97;;;;;;;;;;4984516;28;20037;-72
2023/12/26 16:42:08;;;;;;;74.05;40.00;;;;;;;;;;4999212;28;20033;-73
2023/12/26 16:44:41;;;;;;;88.05;39.65;;;;;;;;;;5004761;28;20403;-72
2023/12/26 16:47:08;;;;;;;82.63;41.15;;;;;;;;;;4999784;28;20034;-72
2023/12/26 16:49:34;;;;;;;62.47;35.72;;;;;;;;;;4999414;28;20038;-71
2023/12/26 16:52:00;;;;;;;51.40;30.15;;;;;;;;;;4987683;28;20546;-72
2023/12/26 16:54:25;;;;;;;54.22;30.00;;;;;;;;;;5009492;28;20045;-72
2023/12/26 16:56:51;;;;;;;77.50;36.78;;;;;;;;;;4995450;28;20034;-72
2023/12/26 16:59:17;;;;;;;76.80;38.50;;;;;;;;;;5009376;28;20018;-70
2023/12/26 17:01:43;;;;;;;66.63;35.38;;;;;;;;;;5001423;28;20408;-72
2023/12/26 17:04:14;;;;;;;66.47;32.72;;;;;;;;;;4990565;28;20106;-72
2023/12/26 17:06:41;;;;;;;81.00;34.65;;;;;;;;;;4990608;28;20084;-71
2023/12/26 17:09:06;;;;;;;87.72;35.70;;;;;;;;;;4989084;28;20030;-72
2023/12/26 17:11:32;;;;;;;71.40;35.63;;;;;;;;;;5002174;28;20530;-73
2023/12/26 17:13:58;;;;;;;82.85;39.72;;;;;;;;;;5008293;28;20033;-70
2023/12/26 17:16:24;;;;;;;74.68;39.53;;;;;;;;;;4991411;28;20033;-71
2023/12/26 17:18:50;;;;;;;88.93;38.70;;;;;;;;;;5007799;28;20038;-73